KRYV

Watertown Municipal Airport

Watertown, Wisconsin, USA
METAR KRYV 250515Z AUTO 00000KT 10SM CLR 18/16 A3001 RMK AO2 T01820159
Observed Flight Rules
May-25 @ 05:15 UTC (7 minutes ago) Visual Flight Rules
Visibility Clouds
10 miles
  • Clear skies
Temperatures Readings
Current 18°C / 64°F
Dewpoint 16°C / 61°F
Humidity 88%
Altimeter 30.01" Hg
Pressure 1016 hPa
Elevation 254
METAR KRYV 250515Z AUTO 00000KT 10SM CLR 18/16 A3001 RMK AO2 T01820159
Observed Flight Rules
May-25 @ 05:15 UTC
(7 minutes ago)
VFR
Clouds
  • Clear skies
Temperature Dewpoint
18°C / 64°F 16°C / 61°F
Humidity Altimeter Pressure
88% 30.01" Hg 1016 hPa